sensor_id;sensor_type;location;lat;lon;timestamp;temperature;humidity
19646;DHT22;9971;52.446;13.452;2023-02-01T00:00:49;6.90;99.90
19646;DHT22;9971;52.446;13.452;2023-02-01T00:05:55;6.80;99.90
19646;DHT22;9971;52.446;13.452;2023-02-01T00:11:00;6.80;99.90
19646;DHT22;9971;52.446;13.452;2023-02-01T00:16:07;6.80;99.90
19646;DHT22;9971;52.446;13.452;2023-02-01T00:21:12;6.90;99.90
19646;DHT22;9971;52.446;13.452;2023-02-01T00:26:15;6.90;99.90
19646;DHT22;9971;52.446;13.452;2023-02-01T00:31:16;6.90;99.90
19646;DHT22;9971;52.446;13.452;2023-02-01T00:36:18;6.90;99.90
19646;DHT22;9971;52.446;13.452;2023-02-01T00:41:21;6.90;99.90
19646;DHT22;9971;52.446;13.452;2023-02-01T00:46:22;6.90;99.90
19646;DHT22;9971;52.446;13.452;2023-02-01T00:51:25;6.90;99.90
19646;DHT22;9971;52.446;13.452;2023-02-01T00:56:26;6.80;99.90
19646;DHT22;9971;52.446;13.452;2023-02-01T01:01:29;6.80;99.90
19646;DHT22;9971;52.446;13.452;2023-02-01T01:06:32;6.80;99.90
19646;DHT22;9971;52.446;13.452;2023-02-01T01:11:35;6.60;99.90
19646;DHT22;9971;52.446;13.452;2023-02-01T01:16:36;6.60;99.90
19646;DHT22;9971;52.446;13.452;2023-02-01T01:21:39;6.50;99.90
19646;DHT22;9971;52.446;13.452;2023-02-01T01:26:44;6.50;99.90
19646;DHT22;9971;52.446;13.452;2023-02-01T01:31:46;6.50;99.90
19646;DHT22;9971;52.446;13.452;2023-02-01T01:36:49;6.60;99.90
19646;DHT22;9971;52.446;13.452;2023-02-01T01:41:51;6.60;99.90
19646;DHT22;9971;52.446;13.452;2023-02-01T01:46:54;6.60;99.90
19646;DHT22;9971;52.446;13.452;2023-02-01T01:51:57;6.60;99.90
19646;DHT22;9971;52.446;13.452;2023-02-01T01:56:59;6.70;99.90
19646;DHT22;9971;52.446;13.452;2023-02-01T02:02:04;6.70;99.90
19646;DHT22;9971;52.446;13.452;2023-02-01T02:07:10;6.70;99.90
19646;DHT22;9971;52.446;13.452;2023-02-01T02:12:11;6.70;99.90
19646;DHT22;9971;52.446;13.452;2023-02-01T02:17:23;6.80;99.90
19646;DHT22;9971;52.446;13.452;2023-02-01T02:22:45;6.80;99.90
19646;DHT22;9971;52.446;13.452;2023-02-01T02:33:38;6.80;99.90
19646;DHT22;9971;52.446;13.452;2023-02-01T02:39:16;6.80;99.90
19646;DHT22;9971;52.446;13.452;2023-02-01T02:43:56;6.80;99.90
19646;DHT22;9971;52.446;13.452;2023-02-01T02:49:05;6.80;99.90
19646;DHT22;9971;52.446;13.452;2023-02-01T02:54:07;6.80;99.90
19646;DHT22;9971;52.446;13.452;2023-02-01T02:59:14;6.80;99.90
19646;DHT22;9971;52.446;13.452;2023-02-01T03:04:21;6.70;99.90
19646;DHT22;9971;52.446;13.452;2023-02-01T03:09:26;6.80;99.90
19646;DHT22;9971;52.446;13.452;2023-02-01T03:14:28;6.80;99.90
19646;DHT22;9971;52.446;13.452;2023-02-01T03:19:33;6.80;99.90
19646;DHT22;9971;52.446;13.452;2023-02-01T03:24:45;6.90;99.90
19646;DHT22;9971;52.446;13.452;2023-02-01T03:30:06;6.90;99.90
19646;DHT22;9971;52.446;13.452;2023-02-01T03:35:05;6.90;99.90
19646;DHT22;9971;52.446;13.452;2023-02-01T03:40:08;6.90;99.90
19646;DHT22;9971;52.446;13.452;2023-02-01T03:45:13;6.90;99.90
19646;DHT22;9971;52.446;13.452;2023-02-01T03:50:15;6.90;99.90
19646;DHT22;9971;52.446;13.452;2023-02-01T03:55:16;6.90;99.90
19646;DHT22;9971;52.446;13.452;2023-02-01T04:00:20;6.90;99.90
19646;DHT22;9971;52.446;13.452;2023-02-01T04:05:21;6.90;99.90
19646;DHT22;9971;52.446;13.452;2023-02-01T04:10:23;7.00;99.90
19646;DHT22;9971;52.446;13.452;2023-02-01T04:15:26;7.10;99.90
19646;DHT22;9971;52.446;13.452;2023-02-01T04:20:28;7.00;99.90
19646;DHT22;9971;52.446;13.452;2023-02-01T04:25:30;7.10;99.90
19646;DHT22;9971;52.446;13.452;2023-02-01T04:30:32;7.10;99.90
19646;DHT22;9971;52.446;13.452;2023-02-01T04:35:34;7.20;99.90
19646;DHT22;9971;52.446;13.452;2023-02-01T04:40:37;7.20;99.90
19646;DHT22;9971;52.446;13.452;2023-02-01T04:45:39;7.20;99.90
19646;DHT22;9971;52.446;13.452;2023-02-01T04:50:42;7.20;99.90
19646;DHT22;9971;52.446;13.452;2023-02-01T04:55:44;7.30;99.90
19646;DHT22;9971;52.446;13.452;2023-02-01T05:00:46;7.30;99.90
19646;DHT22;9971;52.446;13.452;2023-02-01T05:05:48;7.30;99.90
19646;DHT22;9971;52.446;13.452;2023-02-01T05:10:50;7.40;99.90
19646;DHT22;9971;52.446;13.452;2023-02-01T05:15:53;7.40;99.90
19646;DHT22;9971;52.446;13.452;2023-02-01T05:20:55;7.40;99.90
19646;DHT22;9971;52.446;13.452;2023-02-01T05:25:59;7.50;99.90
19646;DHT22;9971;52.446;13.452;2023-02-01T05:31:00;7.40;99.90
19646;DHT22;9971;52.446;13.452;2023-02-01T05:36:02;7.50;99.90
19646;DHT22;9971;52.446;13.452;2023-02-01T05:41:05;7.50;99.90
19646;DHT22;9971;52.446;13.452;2023-02-01T05:46:07;7.60;99.90
19646;DHT22;9971;52.446;13.452;2023-02-01T05:51:10;7.60;99.90
19646;DHT22;9971;52.446;13.452;2023-02-01T05:56:12;7.60;99.90
19646;DHT22;9971;52.446;13.452;2023-02-01T06:01:14;7.60;99.90
19646;DHT22;9971;52.446;13.452;2023-02-01T06:06:17;7.60;99.90
19646;DHT22;9971;52.446;13.452;2023-02-01T06:11:19;7.60;99.90
19646;DHT22;9971;52.446;13.452;2023-02-01T06:16:21;7.60;99.90
19646;DHT22;9971;52.446;13.452;2023-02-01T06:21:23;7.50;99.90
19646;DHT22;9971;52.446;13.452;2023-02-01T06:26:27;7.40;99.90
19646;DHT22;9971;52.446;13.452;2023-02-01T06:31:29;7.40;99.90
19646;DHT22;9971;52.446;13.452;2023-02-01T06:36:31;7.30;99.90
19646;DHT22;9971;52.446;13.452;2023-02-01T06:41:34;7.30;99.90
19646;DHT22;9971;52.446;13.452;2023-02-01T06:46:36;7.90;99.90
19646;DHT22;9971;52.446;13.452;2023-02-01T06:51:39;8.50;99.90
19646;DHT22;9971;52.446;13.452;2023-02-01T06:56:42;9.10;99.90
19646;DHT22;9971;52.446;13.452;2023-02-01T07:01:44;9.50;99.90
19646;DHT22;9971;52.446;13.452;2023-02-01T07:06:47;9.90;99.90
19646;DHT22;9971;52.446;13.452;2023-02-01T07:11:49;10.20;99.90
19646;DHT22;9971;52.446;13.452;2023-02-01T07:16:52;10.40;99.90
19646;DHT22;9971;52.446;13.452;2023-02-01T07:21:54;10.60;99.90
19646;DHT22;9971;52.446;13.452;2023-02-01T07:26:56;10.70;99.90
19646;DHT22;9971;52.446;13.452;2023-02-01T07:31:59;10.90;99.90
19646;DHT22;9971;52.446;13.452;2023-02-01T07:37:01;11.10;99.90
19646;DHT22;9971;52.446;13.452;2023-02-01T07:42:03;11.30;99.90
19646;DHT22;9971;52.446;13.452;2023-02-01T07:47:06;11.40;99.90
19646;DHT22;9971;52.446;13.452;2023-02-01T07:52:08;11.60;99.90
19646;DHT22;9971;52.446;13.452;2023-02-01T07:57:11;11.60;99.90
19646;DHT22;9971;52.446;13.452;2023-02-01T08:02:13;11.70;99.90
19646;DHT22;9971;52.446;13.452;2023-02-01T08:07:15;11.80;99.90
19646;DHT22;9971;52.446;13.452;2023-02-01T08:12:18;11.90;99.90
19646;DHT22;9971;52.446;13.452;2023-02-01T08:17:20;11.90;99.90
19646;DHT22;9971;52.446;13.452;2023-02-01T08:22:23;12.00;99.90
19646;DHT22;9971;52.446;13.452;2023-02-01T08:27:26;12.00;99.90
19646;DHT22;9971;52.446;13.452;2023-02-01T08:32:28;12.20;99.90
19646;DHT22;9971;52.446;13.452;2023-02-01T08:37:30;12.20;99.90
19646;DHT22;9971;52.446;13.452;2023-02-01T08:42:32;12.30;99.90
19646;DHT22;9971;52.446;13.452;2023-02-01T08:47:40;12.20;99.90
19646;DHT22;9971;52.446;13.452;2023-02-01T08:52:43;12.30;99.90
19646;DHT22;9971;52.446;13.452;2023-02-01T08:57:45;12.40;99.90
19646;DHT22;9971;52.446;13.452;2023-02-01T09:02:47;12.40;99.90
19646;DHT22;9971;52.446;13.452;2023-02-01T09:07:50;12.30;99.90
19646;DHT22;9971;52.446;13.452;2023-02-01T09:12:52;12.30;99.90
19646;DHT22;9971;52.446;13.452;2023-02-01T09:17:55;12.20;99.90
19646;DHT22;9971;52.446;13.452;2023-02-01T09:22:57;12.00;99.90
19646;DHT22;9971;52.446;13.452;2023-02-01T09:28:00;12.00;99.90
19646;DHT22;9971;52.446;13.452;2023-02-01T09:33:02;12.10;99.90
19646;DHT22;9971;52.446;13.452;2023-02-01T09:38:05;12.10;99.90
19646;DHT22;9971;52.446;13.452;2023-02-01T09:44:21;12.20;99.90
19646;DHT22;9971;52.446;13.452;2023-02-01T09:48:30;12.20;99.90
19646;DHT22;9971;52.446;13.452;2023-02-01T09:53:35;12.10;99.90
19646;DHT22;9971;52.446;13.452;2023-02-01T09:58:37;12.20;99.90
19646;DHT22;9971;52.446;13.452;2023-02-01T10:03:38;12.20;99.90
19646;DHT22;9971;52.446;13.452;2023-02-01T10:09:04;12.20;99.90
19646;DHT22;9971;52.446;13.452;2023-02-01T10:14:08;12.10;99.90
19646;DHT22;9971;52.446;13.452;2023-02-01T10:19:17;12.20;99.90
19646;DHT22;9971;52.446;13.452;2023-02-01T10:24:20;12.20;99.90
19646;DHT22;9971;52.446;13.452;2023-02-01T10:29:20;12.30;99.90
19646;DHT22;9971;52.446;13.452;2023-02-01T10:34:22;12.30;99.90
19646;DHT22;9971;52.446;13.452;2023-02-01T10:39:23;12.20;99.90
19646;DHT22;9971;52.446;13.452;2023-02-01T10:44:26;12.20;99.90
19646;DHT22;9971;52.446;13.452;2023-02-01T10:49:34;12.20;99.90
19646;DHT22;9971;52.446;13.452;2023-02-01T10:54:32;12.20;99.90
19646;DHT22;9971;52.446;13.452;2023-02-01T10:59:34;12.00;99.90
19646;DHT22;9971;52.446;13.452;2023-02-01T11:04:36;12.00;99.90
19646;DHT22;9971;52.446;13.452;2023-02-01T11:09:39;12.00;99.90
19646;DHT22;9971;52.446;13.452;2023-02-01T11:14:40;12.10;99.90
19646;DHT22;9971;52.446;13.452;2023-02-01T11:19:44;12.20;99.90
19646;DHT22;9971;52.446;13.452;2023-02-01T11:24:45;12.30;99.90
19646;DHT22;9971;52.446;13.452;2023-02-01T11:29:49;12.40;99.90
19646;DHT22;9971;52.446;13.452;2023-02-01T11:34:54;12.40;99.90
19646;DHT22;9971;52.446;13.452;2023-02-01T11:39:57;12.40;99.90
19646;DHT22;9971;52.446;13.452;2023-02-01T11:45:16;12.50;99.90
19646;DHT22;9971;52.446;13.452;2023-02-01T11:50:17;12.50;99.90
19646;DHT22;9971;52.446;13.452;2023-02-01T11:55:28;12.50;99.90
19646;DHT22;9971;52.446;13.452;2023-02-01T12:05:55;12.60;99.90
19646;DHT22;9971;52.446;13.452;2023-02-01T12:16:33;12.60;99.90
19646;DHT22;9971;52.446;13.452;2023-02-01T12:21:52;12.60;99.90
19646;DHT22;9971;52.446;13.452;2023-02-01T12:27:04;12.60;99.90
19646;DHT22;9971;52.446;13.452;2023-02-01T12:32:13;12.60;99.90
19646;DHT22;9971;52.446;13.452;2023-02-01T12:37:23;12.60;99.90
19646;DHT22;9971;52.446;13.452;2023-02-01T12:42:38;12.60;99.90
19646;DHT22;9971;52.446;13.452;2023-02-01T12:47:44;12.50;99.90
19646;DHT22;9971;52.446;13.452;2023-02-01T12:52:45;12.40;99.90
19646;DHT22;9971;52.446;13.452;2023-02-01T12:57:49;12.40;99.90
19646;DHT22;9971;52.446;13.452;2023-02-01T13:02:57;12.30;99.90
19646;DHT22;9971;52.446;13.452;2023-02-01T13:07:59;12.30;99.90
19646;DHT22;9971;52.446;13.452;2023-02-01T13:13:27;12.30;99.90
19646;DHT22;9971;52.446;13.452;2023-02-01T13:18:32;12.30;99.90
19646;DHT22;9971;52.446;13.452;2023-02-01T13:23:31;12.40;99.90
19646;DHT22;9971;52.446;13.452;2023-02-01T13:28:51;12.40;99.90
19646;DHT22;9971;52.446;13.452;2023-02-01T13:39:20;12.40;99.90
19646;DHT22;9971;52.446;13.452;2023-02-01T13:44:19;12.40;99.90
19646;DHT22;9971;52.446;13.452;2023-02-01T13:49:21;12.40;99.90
19646;DHT22;9971;52.446;13.452;2023-02-01T13:54:35;12.40;99.90
19646;DHT22;9971;52.446;13.452;2023-02-01T13:59:51;12.50;99.90
19646;DHT22;9971;52.446;13.452;2023-02-01T14:04:53;12.50;99.90
19646;DHT22;9971;52.446;13.452;2023-02-01T14:09:55;12.70;99.90
19646;DHT22;9971;52.446;13.452;2023-02-01T14:15:24;12.70;99.90
19646;DHT22;9971;52.446;13.452;2023-02-01T14:20:45;12.80;99.90
19646;DHT22;9971;52.446;13.452;2023-02-01T14:25:47;12.80;99.90
19646;DHT22;9971;52.446;13.452;2023-02-01T14:30:49;13.00;99.90
19646;DHT22;9971;52.446;13.452;2023-02-01T14:36:07;13.00;99.90
19646;DHT22;9971;52.446;13.452;2023-02-01T14:41:25;13.00;99.90
19646;DHT22;9971;52.446;13.452;2023-02-01T14:51:41;13.00;99.90
19646;DHT22;9971;52.446;13.452;2023-02-01T14:56:44;13.00;99.90
19646;DHT22;9971;52.446;13.452;2023-02-01T15:01:49;13.00;99.90
19646;DHT22;9971;52.446;13.452;2023-02-01T15:06:50;12.90;99.90
19646;DHT22;9971;52.446;13.452;2023-02-01T15:12:05;13.00;99.90
19646;DHT22;9971;52.446;13.452;2023-02-01T15:17:17;13.00;99.90
19646;DHT22;9971;52.446;13.452;2023-02-01T15:22:18;12.80;99.90
19646;DHT22;9971;52.446;13.452;2023-02-01T15:27:20;12.70;99.90
19646;DHT22;9971;52.446;13.452;2023-02-01T15:32:29;12.70;99.90
19646;DHT22;9971;52.446;13.452;2023-02-01T15:37:31;12.70;99.90
19646;DHT22;9971;52.446;13.452;2023-02-01T15:42:33;12.60;99.90
19646;DHT22;9971;52.446;13.452;2023-02-01T15:47:35;12.60;99.90
19646;DHT22;9971;52.446;13.452;2023-02-01T15:52:37;12.60;99.90
19646;DHT22;9971;52.446;13.452;2023-02-01T15:57:39;12.60;99.90
19646;DHT22;9971;52.446;13.452;2023-02-01T16:02:42;12.70;99.90
19646;DHT22;9971;52.446;13.452;2023-02-01T16:07:53;12.70;99.90
19646;DHT22;9971;52.446;13.452;2023-02-01T16:12:46;12.80;99.90
19646;DHT22;9971;52.446;13.452;2023-02-01T16:17:48;12.80;99.90
19646;DHT22;9971;52.446;13.452;2023-02-01T16:22:50;12.70;99.90
19646;DHT22;9971;52.446;13.452;2023-02-01T16:27:53;12.70;99.90
19646;DHT22;9971;52.446;13.452;2023-02-01T16:32:55;12.50;99.90
19646;DHT22;9971;52.446;13.452;2023-02-01T16:37:57;12.40;99.90
19646;DHT22;9971;52.446;13.452;2023-02-01T16:42:59;12.40;99.90
19646;DHT22;9971;52.446;13.452;2023-02-01T16:48:01;12.40;99.90
19646;DHT22;9971;52.446;13.452;2023-02-01T16:53:04;12.30;99.90
19646;DHT22;9971;52.446;13.452;2023-02-01T16:58:07;12.30;99.90
19646;DHT22;9971;52.446;13.452;2023-02-01T17:03:10;12.20;99.90
19646;DHT22;9971;52.446;13.452;2023-02-01T17:08:12;12.00;99.90
19646;DHT22;9971;52.446;13.452;2023-02-01T17:13:14;12.00;99.90
19646;DHT22;9971;52.446;13.452;2023-02-01T17:18:16;12.00;99.90
19646;DHT22;9971;52.446;13.452;2023-02-01T17:23:18;12.00;99.90
19646;DHT22;9971;52.446;13.452;2023-02-01T17:28:20;11.90;99.90
19646;DHT22;9971;52.446;13.452;2023-02-01T17:33:26;11.80;99.90
19646;DHT22;9971;52.446;13.452;2023-02-01T17:38:27;11.70;99.90
19646;DHT22;9971;52.446;13.452;2023-02-01T17:43:29;11.70;99.90
19646;DHT22;9971;52.446;13.452;2023-02-01T17:48:31;11.70;99.90
19646;DHT22;9971;52.446;13.452;2023-02-01T17:53:34;11.60;99.90
19646;DHT22;9971;52.446;13.452;2023-02-01T17:58:36;11.60;99.90
19646;DHT22;9971;52.446;13.452;2023-02-01T18:03:39;11.60;99.90
19646;DHT22;9971;52.446;13.452;2023-02-01T18:08:41;11.60;99.90
19646;DHT22;9971;52.446;13.452;2023-02-01T18:13:43;11.50;99.90
19646;DHT22;9971;52.446;13.452;2023-02-01T18:18:45;11.40;99.90
19646;DHT22;9971;52.446;13.452;2023-02-01T18:23:47;11.40;99.90
19646;DHT22;9971;52.446;13.452;2023-02-01T18:28:49;11.40;99.90
19646;DHT22;9971;52.446;13.452;2023-02-01T18:33:52;11.60;99.90
19646;DHT22;9971;52.446;13.452;2023-02-01T18:38:54;11.60;99.90
19646;DHT22;9971;52.446;13.452;2023-02-01T18:43:56;11.60;99.90
19646;DHT22;9971;52.446;13.452;2023-02-01T18:48:58;11.60;99.90
19646;DHT22;9971;52.446;13.452;2023-02-01T18:54:01;11.60;99.90
19646;DHT22;9971;52.446;13.452;2023-02-01T18:59:03;11.60;99.90
19646;DHT22;9971;52.446;13.452;2023-02-01T19:04:07;11.60;99.90
19646;DHT22;9971;52.446;13.452;2023-02-01T19:09:09;11.70;99.90
19646;DHT22;9971;52.446;13.452;2023-02-01T19:14:11;11.70;99.90
19646;DHT22;9971;52.446;13.452;2023-02-01T19:19:14;11.70;99.90
19646;DHT22;9971;52.446;13.452;2023-02-01T19:24:16;11.80;99.90
19646;DHT22;9971;52.446;13.452;2023-02-01T19:29:19;11.70;99.90
19646;DHT22;9971;52.446;13.452;2023-02-01T19:34:21;11.80;99.90
19646;DHT22;9971;52.446;13.452;2023-02-01T19:39:24;11.80;99.90
19646;DHT22;9971;52.446;13.452;2023-02-01T19:44:26;11.90;99.90
19646;DHT22;9971;52.446;13.452;2023-02-01T19:49:29;11.90;99.90
19646;DHT22;9971;52.446;13.452;2023-02-01T19:54:31;11.80;99.90
19646;DHT22;9971;52.446;13.452;2023-02-01T19:59:33;11.90;99.90
19646;DHT22;9971;52.446;13.452;2023-02-01T20:04:36;12.00;99.90
19646;DHT22;9971;52.446;13.452;2023-02-01T20:09:39;11.80;99.90
19646;DHT22;9971;52.446;13.452;2023-02-01T20:14:42;11.70;99.90
19646;DHT22;9971;52.446;13.452;2023-02-01T20:19:44;11.70;99.90
19646;DHT22;9971;52.446;13.452;2023-02-01T20:24:47;11.60;99.90
19646;DHT22;9971;52.446;13.452;2023-02-01T20:29:49;11.70;99.90
19646;DHT22;9971;52.446;13.452;2023-02-01T20:34:52;11.60;99.90
19646;DHT22;9971;52.446;13.452;2023-02-01T20:39:54;11.60;99.90
19646;DHT22;9971;52.446;13.452;2023-02-01T20:44:57;11.60;99.90
19646;DHT22;9971;52.446;13.452;2023-02-01T20:49:59;11.60;99.90
19646;DHT22;9971;52.446;13.452;2023-02-01T20:55:02;11.60;99.90
19646;DHT22;9971;52.446;13.452;2023-02-01T21:00:05;11.60;99.90
19646;DHT22;9971;52.446;13.452;2023-02-01T21:05:08;11.60;99.90
19646;DHT22;9971;52.446;13.452;2023-02-01T21:10:10;11.70;99.90
19646;DHT22;9971;52.446;13.452;2023-02-01T21:15:13;11.70;99.90
19646;DHT22;9971;52.446;13.452;2023-02-01T21:20:15;11.70;99.90
19646;DHT22;9971;52.446;13.452;2023-02-01T21:25:17;11.70;99.90
19646;DHT22;9971;52.446;13.452;2023-02-01T21:30:20;11.80;99.90
19646;DHT22;9971;52.446;13.452;2023-02-01T21:35:22;11.90;99.90
19646;DHT22;9971;52.446;13.452;2023-02-01T21:40:25;12.00;99.90
19646;DHT22;9971;52.446;13.452;2023-02-01T21:45:27;12.10;99.90
19646;DHT22;9971;52.446;13.452;2023-02-01T21:50:30;12.20;99.90
19646;DHT22;9971;52.446;13.452;2023-02-01T21:55:32;12.30;99.90
19646;DHT22;9971;52.446;13.452;2023-02-01T22:00:35;12.30;99.90
19646;DHT22;9971;52.446;13.452;2023-02-01T22:05:37;12.40;99.90
19646;DHT22;9971;52.446;13.452;2023-02-01T22:10:40;12.30;99.90
19646;DHT22;9971;52.446;13.452;2023-02-01T22:15:42;12.30;99.90
19646;DHT22;9971;52.446;13.452;2023-02-01T22:20:45;12.30;99.90
19646;DHT22;9971;52.446;13.452;2023-02-01T22:25:47;12.30;99.90
19646;DHT22;9971;52.446;13.452;2023-02-01T22:30:50;12.30;99.90
19646;DHT22;9971;52.446;13.452;2023-02-01T22:35:52;12.40;99.90
19646;DHT22;9971;52.446;13.452;2023-02-01T22:40:55;12.30;99.90
19646;DHT22;9971;52.446;13.452;2023-02-01T22:45:58;12.30;99.90
19646;DHT22;9971;52.446;13.452;2023-02-01T22:51:00;12.30;99.90
19646;DHT22;9971;52.446;13.452;2023-02-01T22:56:02;12.30;99.90
19646;DHT22;9971;52.446;13.452;2023-02-01T23:01:06;12.10;99.90
19646;DHT22;9971;52.446;13.452;2023-02-01T23:06:06;9.10;99.90
19646;DHT22;9971;52.446;13.452;2023-02-01T23:11:08;7.70;99.90
19646;DHT22;9971;52.446;13.452;2023-02-01T23:16:11;7.20;99.90
19646;DHT22;9971;52.446;13.452;2023-02-01T23:21:14;7.60;99.90
19646;DHT22;9971;52.446;13.452;2023-02-01T23:26:15;8.30;99.90
19646;DHT22;9971;52.446;13.452;2023-02-01T23:31:17;8.70;99.90
19646;DHT22;9971;52.446;13.452;2023-02-01T23:36:20;9.20;99.90
19646;DHT22;9971;52.446;13.452;2023-02-01T23:41:22;9.50;99.90
19646;DHT22;9971;52.446;13.452;2023-02-01T23:46:26;9.70;99.90
19646;DHT22;9971;52.446;13.452;2023-02-01T23:51:27;10.00;99.90
19646;DHT22;9971;52.446;13.452;2023-02-01T23:56:31;10.20;99.90
